sensor_id;sensor_type;location;lat;lon;timestamp;P1;durP1;ratioP1;P2;durP2;ratioP2
19566;SDS011;9930;49.240;8.548;2022-07-03T00:01:54;1.73;;;1.40;;
19566;SDS011;9930;49.240;8.548;2022-07-03T00:04:21;1.98;;;1.65;;
19566;SDS011;9930;49.240;8.548;2022-07-03T00:06:54;1.40;;;1.30;;
19566;SDS011;9930;49.240;8.548;2022-07-03T00:09:22;1.50;;;1.40;;
19566;SDS011;9930;49.240;8.548;2022-07-03T00:11:51;1.40;;;1.30;;
19566;SDS011;9930;49.240;8.548;2022-07-03T00:14:18;1.23;;;1.20;;
19566;SDS011;9930;49.240;8.548;2022-07-03T00:16:50;1.58;;;1.40;;
19566;SDS011;9930;49.240;8.548;2022-07-03T00:19:23;1.10;;;1.10;;
19566;SDS011;9930;49.240;8.548;2022-07-03T00:21:55;1.40;;;1.30;;
19566;SDS011;9930;49.240;8.548;2022-07-03T00:24:32;1.40;;;1.30;;
19566;SDS011;9930;49.240;8.548;2022-07-03T00:27:14;1.40;;;1.30;;
19566;SDS011;9930;49.240;8.548;2022-07-03T00:29:44;1.48;;;1.38;;
19566;SDS011;9930;49.240;8.548;2022-07-03T00:32:13;1.42;;;1.33;;
19566;SDS011;9930;49.240;8.548;2022-07-03T00:34:52;1.40;;;1.30;;
19566;SDS011;9930;49.240;8.548;2022-07-03T00:37:23;1.30;;;1.20;;
19566;SDS011;9930;49.240;8.548;2022-07-03T00:39:52;1.70;;;1.35;;
19566;SDS011;9930;49.240;8.548;2022-07-03T00:42:20;1.40;;;1.30;;
19566;SDS011;9930;49.240;8.548;2022-07-03T00:44:49;1.40;;;1.30;;
19566;SDS011;9930;49.240;8.548;2022-07-03T00:47:25;1.23;;;1.17;;
19566;SDS011;9930;49.240;8.548;2022-07-03T00:49:56;1.35;;;1.25;;
19566;SDS011;9930;49.240;8.548;2022-07-03T00:52:23;1.27;;;1.20;;
19566;SDS011;9930;49.240;8.548;2022-07-03T00:54:54;1.35;;;1.25;;
19566;SDS011;9930;49.240;8.548;2022-07-03T00:57:24;1.33;;;1.23;;
19566;SDS011;9930;49.240;8.548;2022-07-03T00:59:53;1.23;;;1.17;;
19566;SDS011;9930;49.240;8.548;2022-07-03T01:05:26;2.92;;;1.48;;
19566;SDS011;9930;49.240;8.548;2022-07-03T01:14:14;2.38;;;1.52;;
19566;SDS011;9930;49.240;8.548;2022-07-03T01:28:10;1.50;;;1.40;;
19566;SDS011;9930;49.240;8.548;2022-07-03T01:30:42;1.15;;;1.15;;
19566;SDS011;9930;49.240;8.548;2022-07-03T01:33:24;1.40;;;1.30;;
19566;SDS011;9930;49.240;8.548;2022-07-03T01:35:58;1.55;;;1.42;;
19566;SDS011;9930;49.240;8.548;2022-07-03T01:38:36;1.50;;;1.40;;
19566;SDS011;9930;49.240;8.548;2022-07-03T01:41:10;1.42;;;1.30;;
19566;SDS011;9930;49.240;8.548;2022-07-03T01:43:42;1.60;;;1.50;;
19566;SDS011;9930;49.240;8.548;2022-07-03T01:46:17;1.40;;;1.30;;
19566;SDS011;9930;49.240;8.548;2022-07-03T01:48:48;1.52;;;1.42;;
19566;SDS011;9930;49.240;8.548;2022-07-03T01:51:27;1.48;;;1.38;;
19566;SDS011;9930;49.240;8.548;2022-07-03T01:53:56;1.85;;;1.70;;
19566;SDS011;9930;49.240;8.548;2022-07-03T01:56:27;2.78;;;1.85;;
19566;SDS011;9930;49.240;8.548;2022-07-03T01:58:58;1.50;;;1.40;;
19566;SDS011;9930;49.240;8.548;2022-07-03T02:01:31;1.63;;;1.52;;
19566;SDS011;9930;49.240;8.548;2022-07-03T02:10:14;1.38;;;1.27;;
19566;SDS011;9930;49.240;8.548;2022-07-03T02:12:57;1.50;;;1.40;;
19566;SDS011;9930;49.240;8.548;2022-07-03T02:15:55;1.60;;;1.50;;
19566;SDS011;9930;49.240;8.548;2022-07-03T02:18:27;2.15;;;1.63;;
19566;SDS011;9930;49.240;8.548;2022-07-03T02:21:05;1.50;;;1.40;;
19566;SDS011;9930;49.240;8.548;2022-07-03T02:23:49;1.60;;;1.50;;
19566;SDS011;9930;49.240;8.548;2022-07-03T02:26:33;1.60;;;1.50;;
19566;SDS011;9930;49.240;8.548;2022-07-03T02:29:03;4.38;;;1.63;;
19566;SDS011;9930;49.240;8.548;2022-07-03T02:31:37;1.60;;;1.50;;
19566;SDS011;9930;49.240;8.548;2022-07-03T02:34:07;1.95;;;1.40;;
19566;SDS011;9930;49.240;8.548;2022-07-03T02:36:39;1.67;;;1.58;;
19566;SDS011;9930;49.240;8.548;2022-07-03T02:39:14;1.83;;;1.73;;
19566;SDS011;9930;49.240;8.548;2022-07-03T02:42:30;1.73;;;1.50;;
19566;SDS011;9930;49.240;8.548;2022-07-03T02:45:08;2.08;;;1.85;;
19566;SDS011;9930;49.240;8.548;2022-07-03T02:50:07;1.90;;;1.70;;
19566;SDS011;9930;49.240;8.548;2022-07-03T02:53:44;1.90;;;1.80;;
19566;SDS011;9930;49.240;8.548;2022-07-03T02:55:58;1.95;;;1.50;;
19566;SDS011;9930;49.240;8.548;2022-07-03T02:58:50;2.22;;;1.90;;
19566;SDS011;9930;49.240;8.548;2022-07-03T03:02:02;1.85;;;1.75;;
19566;SDS011;9930;49.240;8.548;2022-07-03T03:04:42;1.70;;;1.60;;
19566;SDS011;9930;49.240;8.548;2022-07-03T03:07:26;1.73;;;1.63;;
19566;SDS011;9930;49.240;8.548;2022-07-03T03:10:21;2.15;;;1.92;;
19566;SDS011;9930;49.240;8.548;2022-07-03T03:13:09;1.80;;;1.70;;
19566;SDS011;9930;49.240;8.548;2022-07-03T03:15:38;1.98;;;1.88;;
19566;SDS011;9930;49.240;8.548;2022-07-03T03:18:23;1.80;;;1.70;;
19566;SDS011;9930;49.240;8.548;2022-07-03T03:20:56;1.70;;;1.60;;
19566;SDS011;9930;49.240;8.548;2022-07-03T03:26:10;1.63;;;1.52;;
19566;SDS011;9930;49.240;8.548;2022-07-03T03:28:37;1.80;;;1.70;;
19566;SDS011;9930;49.240;8.548;2022-07-03T03:31:11;1.73;;;1.63;;
19566;SDS011;9930;49.240;8.548;2022-07-03T03:33:40;2.13;;;1.60;;
19566;SDS011;9930;49.240;8.548;2022-07-03T03:36:09;1.75;;;1.65;;
19566;SDS011;9930;49.240;8.548;2022-07-03T03:38:38;2.17;;;1.80;;
19566;SDS011;9930;49.240;8.548;2022-07-03T03:41:05;2.17;;;1.83;;
19566;SDS011;9930;49.240;8.548;2022-07-03T03:43:34;2.28;;;1.73;;
19566;SDS011;9930;49.240;8.548;2022-07-03T03:46:01;2.17;;;1.75;;
19566;SDS011;9930;49.240;8.548;2022-07-03T03:48:28;1.80;;;1.70;;
19566;SDS011;9930;49.240;8.548;2022-07-03T03:50:56;1.85;;;1.75;;
19566;SDS011;9930;49.240;8.548;2022-07-03T03:53:23;1.67;;;1.58;;
19566;SDS011;9930;49.240;8.548;2022-07-03T03:56:13;1.65;;;1.55;;
19566;SDS011;9930;49.240;8.548;2022-07-03T03:58:41;1.90;;;1.80;;
19566;SDS011;9930;49.240;8.548;2022-07-03T04:01:09;1.55;;;1.45;;
19566;SDS011;9930;49.240;8.548;2022-07-03T04:03:37;2.03;;;1.80;;
19566;SDS011;9930;49.240;8.548;2022-07-03T04:06:07;1.70;;;1.60;;
19566;SDS011;9930;49.240;8.548;2022-07-03T04:08:33;1.65;;;1.55;;
19566;SDS011;9930;49.240;8.548;2022-07-03T04:10:59;2.03;;;1.50;;
19566;SDS011;9930;49.240;8.548;2022-07-03T04:13:25;1.80;;;1.70;;
19566;SDS011;9930;49.240;8.548;2022-07-03T04:15:52;1.67;;;1.58;;
19566;SDS011;9930;49.240;8.548;2022-07-03T04:18:20;1.55;;;1.45;;
19566;SDS011;9930;49.240;8.548;2022-07-03T04:20:52;1.77;;;1.60;;
19566;SDS011;9930;49.240;8.548;2022-07-03T04:23:22;2.92;;;1.70;;
19566;SDS011;9930;49.240;8.548;2022-07-03T04:25:48;1.90;;;1.80;;
19566;SDS011;9930;49.240;8.548;2022-07-03T04:28:14;1.70;;;1.60;;
19566;SDS011;9930;49.240;8.548;2022-07-03T04:30:40;2.65;;;1.83;;
19566;SDS011;9930;49.240;8.548;2022-07-03T04:33:06;2.97;;;1.98;;
19566;SDS011;9930;49.240;8.548;2022-07-03T04:35:34;2.08;;;1.90;;
19566;SDS011;9930;49.240;8.548;2022-07-03T04:38:03;2.40;;;1.90;;
19566;SDS011;9930;49.240;8.548;2022-07-03T04:40:29;1.95;;;1.85;;
19566;SDS011;9930;49.240;8.548;2022-07-03T04:42:55;2.28;;;1.90;;
19566;SDS011;9930;49.240;8.548;2022-07-03T04:45:26;1.63;;;1.52;;
19566;SDS011;9930;49.240;8.548;2022-07-03T04:47:56;2.58;;;1.90;;
19566;SDS011;9930;49.240;8.548;2022-07-03T04:50:22;2.30;;;1.70;;
19566;SDS011;9930;49.240;8.548;2022-07-03T04:52:48;1.83;;;1.73;;
19566;SDS011;9930;49.240;8.548;2022-07-03T04:55:19;2.35;;;1.83;;
19566;SDS011;9930;49.240;8.548;2022-07-03T04:57:53;2.47;;;1.70;;
19566;SDS011;9930;49.240;8.548;2022-07-03T05:00:27;2.30;;;2.10;;
19566;SDS011;9930;49.240;8.548;2022-07-03T05:02:53;1.67;;;1.58;;
19566;SDS011;9930;49.240;8.548;2022-07-03T05:05:18;1.95;;;1.70;;
19566;SDS011;9930;49.240;8.548;2022-07-03T05:07:48;1.60;;;1.50;;
19566;SDS011;9930;49.240;8.548;2022-07-03T05:10:18;1.80;;;1.50;;
19566;SDS011;9930;49.240;8.548;2022-07-03T05:12:47;5.63;;;2.03;;
19566;SDS011;9930;49.240;8.548;2022-07-03T05:15:13;1.80;;;1.70;;
19566;SDS011;9930;49.240;8.548;2022-07-03T05:17:44;1.70;;;1.60;;
19566;SDS011;9930;49.240;8.548;2022-07-03T05:20:10;1.70;;;1.45;;
19566;SDS011;9930;49.240;8.548;2022-07-03T05:22:49;1.58;;;1.45;;
19566;SDS011;9930;49.240;8.548;2022-07-03T05:25:20;1.58;;;1.48;;
19566;SDS011;9930;49.240;8.548;2022-07-03T05:27:48;1.70;;;1.60;;
19566;SDS011;9930;49.240;8.548;2022-07-03T05:30:19;1.98;;;1.60;;
19566;SDS011;9930;49.240;8.548;2022-07-03T05:32:49;1.48;;;1.38;;
19566;SDS011;9930;49.240;8.548;2022-07-03T05:35:20;1.60;;;1.50;;
19566;SDS011;9930;49.240;8.548;2022-07-03T05:37:52;1.70;;;1.60;;
19566;SDS011;9930;49.240;8.548;2022-07-03T05:40:23;2.00;;;1.70;;
19566;SDS011;9930;49.240;8.548;2022-07-03T05:42:52;1.70;;;1.60;;
19566;SDS011;9930;49.240;8.548;2022-07-03T05:45:18;1.73;;;1.63;;
19566;SDS011;9930;49.240;8.548;2022-07-03T05:47:44;1.60;;;1.50;;
19566;SDS011;9930;49.240;8.548;2022-07-03T05:50:10;1.63;;;1.52;;
19566;SDS011;9930;49.240;8.548;2022-07-03T05:52:36;1.60;;;1.50;;
19566;SDS011;9930;49.240;8.548;2022-07-03T05:55:02;1.63;;;1.50;;
19566;SDS011;9930;49.240;8.548;2022-07-03T05:57:29;1.70;;;1.60;;
19566;SDS011;9930;49.240;8.548;2022-07-03T05:59:58;1.70;;;1.60;;
19566;SDS011;9930;49.240;8.548;2022-07-03T06:02:26;1.95;;;1.70;;
19566;SDS011;9930;49.240;8.548;2022-07-03T06:04:54;1.63;;;1.52;;
19566;SDS011;9930;49.240;8.548;2022-07-03T06:07:24;1.50;;;1.40;;
19566;SDS011;9930;49.240;8.548;2022-07-03T06:09:54;2.13;;;1.50;;
19566;SDS011;9930;49.240;8.548;2022-07-03T06:12:22;1.50;;;1.40;;
19566;SDS011;9930;49.240;8.548;2022-07-03T06:14:50;1.40;;;1.30;;
19566;SDS011;9930;49.240;8.548;2022-07-03T06:17:19;1.90;;;1.23;;
19566;SDS011;9930;49.240;8.548;2022-07-03T06:19:53;1.83;;;1.50;;
19566;SDS011;9930;49.240;8.548;2022-07-03T06:22:22;1.42;;;1.33;;
19566;SDS011;9930;49.240;8.548;2022-07-03T06:24:48;2.35;;;1.50;;
19566;SDS011;9930;49.240;8.548;2022-07-03T06:27:18;1.10;;;1.10;;
19566;SDS011;9930;49.240;8.548;2022-07-03T06:29:54;1.40;;;1.30;;
19566;SDS011;9930;49.240;8.548;2022-07-03T06:32:21;1.15;;;1.15;;
19566;SDS011;9930;49.240;8.548;2022-07-03T06:34:58;1.67;;;1.40;;
19566;SDS011;9930;49.240;8.548;2022-07-03T06:37:24;1.70;;;1.20;;
19566;SDS011;9930;49.240;8.548;2022-07-03T06:39:53;1.50;;;1.40;;
19566;SDS011;9930;49.240;8.548;2022-07-03T06:42:28;1.60;;;1.50;;
19566;SDS011;9930;49.240;8.548;2022-07-03T06:44:56;1.38;;;1.20;;
19566;SDS011;9930;49.240;8.548;2022-07-03T06:47:28;1.35;;;1.25;;
19566;SDS011;9930;49.240;8.548;2022-07-03T06:49:54;1.50;;;1.35;;
19566;SDS011;9930;49.240;8.548;2022-07-03T06:52:23;1.27;;;1.17;;
19566;SDS011;9930;49.240;8.548;2022-07-03T06:54:51;1.33;;;1.23;;
19566;SDS011;9930;49.240;8.548;2022-07-03T06:57:19;1.33;;;1.25;;
19566;SDS011;9930;49.240;8.548;2022-07-03T06:59:47;2.00;;;1.50;;
19566;SDS011;9930;49.240;8.548;2022-07-03T07:02:15;1.02;;;1.02;;
19566;SDS011;9930;49.240;8.548;2022-07-03T07:04:41;1.00;;;1.00;;
19566;SDS011;9930;49.240;8.548;2022-07-03T07:07:07;1.50;;;1.40;;
19566;SDS011;9930;49.240;8.548;2022-07-03T07:09:33;1.30;;;1.20;;
19566;SDS011;9930;49.240;8.548;2022-07-03T07:11:58;1.10;;;1.10;;
19566;SDS011;9930;49.240;8.548;2022-07-03T07:14:26;1.17;;;1.08;;
19566;SDS011;9930;49.240;8.548;2022-07-03T07:16:58;2.65;;;1.20;;
19566;SDS011;9930;49.240;8.548;2022-07-03T07:19:26;1.27;;;1.13;;
19566;SDS011;9930;49.240;8.548;2022-07-03T07:21:54;1.13;;;1.02;;
19566;SDS011;9930;49.240;8.548;2022-07-03T07:24:23;1.05;;;1.05;;
19566;SDS011;9930;49.240;8.548;2022-07-03T07:26:57;1.20;;;1.10;;
19566;SDS011;9930;49.240;8.548;2022-07-03T07:29:26;1.20;;;1.10;;
19566;SDS011;9930;49.240;8.548;2022-07-03T07:31:53;1.30;;;1.20;;
19566;SDS011;9930;49.240;8.548;2022-07-03T07:34:27;0.90;;;0.90;;
19566;SDS011;9930;49.240;8.548;2022-07-03T07:36:57;1.40;;;1.00;;
19566;SDS011;9930;49.240;8.548;2022-07-03T07:39:24;2.25;;;1.30;;
19566;SDS011;9930;49.240;8.548;2022-07-03T07:41:54;1.05;;;0.95;;
19566;SDS011;9930;49.240;8.548;2022-07-03T07:44:27;1.20;;;1.10;;
19566;SDS011;9930;49.240;8.548;2022-07-03T07:46:55;0.93;;;0.93;;
19566;SDS011;9930;49.240;8.548;2022-07-03T07:49:24;0.90;;;0.90;;
19566;SDS011;9930;49.240;8.548;2022-07-03T07:51:51;0.90;;;0.90;;
19566;SDS011;9930;49.240;8.548;2022-07-03T07:54:23;0.90;;;0.90;;
19566;SDS011;9930;49.240;8.548;2022-07-03T07:56:53;1.00;;;1.00;;
19566;SDS011;9930;49.240;8.548;2022-07-03T07:59:19;0.98;;;0.98;;
19566;SDS011;9930;49.240;8.548;2022-07-03T08:01:49;1.02;;;0.90;;
19566;SDS011;9930;49.240;8.548;2022-07-03T08:04:44;1.33;;;1.00;;
19566;SDS011;9930;49.240;8.548;2022-07-03T08:07:29;1.73;;;1.13;;
19566;SDS011;9930;49.240;8.548;2022-07-03T08:09:54;1.35;;;1.05;;
19566;SDS011;9930;49.240;8.548;2022-07-03T08:12:22;1.23;;;1.00;;
19566;SDS011;9930;49.240;8.548;2022-07-03T08:14:49;0.90;;;0.90;;
19566;SDS011;9930;49.240;8.548;2022-07-03T08:17:18;1.00;;;1.00;;
19566;SDS011;9930;49.240;8.548;2022-07-03T08:19:44;1.08;;;1.00;;
19566;SDS011;9930;49.240;8.548;2022-07-03T08:22:12;1.05;;;1.05;;
19566;SDS011;9930;49.240;8.548;2022-07-03T08:24:38;1.52;;;0.90;;
19566;SDS011;9930;49.240;8.548;2022-07-03T08:27:04;1.13;;;1.02;;
19566;SDS011;9930;49.240;8.548;2022-07-03T08:29:30;0.93;;;0.93;;
19566;SDS011;9930;49.240;8.548;2022-07-03T08:31:56;0.98;;;0.98;;
19566;SDS011;9930;49.240;8.548;2022-07-03T08:34:24;1.33;;;0.98;;
19566;SDS011;9930;49.240;8.548;2022-07-03T08:36:52;1.10;;;1.00;;
19566;SDS011;9930;49.240;8.548;2022-07-03T08:39:19;1.13;;;1.05;;
19566;SDS011;9930;49.240;8.548;2022-07-03T08:41:49;1.20;;;1.02;;
19566;SDS011;9930;49.240;8.548;2022-07-03T08:44:23;1.15;;;1.00;;
19566;SDS011;9930;49.240;8.548;2022-07-03T08:46:52;0.98;;;0.98;;
19566;SDS011;9930;49.240;8.548;2022-07-03T08:49:23;0.98;;;0.98;;
19566;SDS011;9930;49.240;8.548;2022-07-03T08:51:57;1.38;;;1.27;;
19566;SDS011;9930;49.240;8.548;2022-07-03T08:54:32;1.70;;;1.30;;
19566;SDS011;9930;49.240;8.548;2022-07-03T08:57:00;1.10;;;1.00;;
19566;SDS011;9930;49.240;8.548;2022-07-03T08:59:29;1.27;;;1.05;;
19566;SDS011;9930;49.240;8.548;2022-07-03T09:02:02;0.88;;;0.88;;
19566;SDS011;9930;49.240;8.548;2022-07-03T09:04:30;1.00;;;1.00;;
19566;SDS011;9930;49.240;8.548;2022-07-03T09:06:59;1.20;;;1.00;;
19566;SDS011;9930;49.240;8.548;2022-07-03T09:09:26;1.20;;;1.10;;
19566;SDS011;9930;49.240;8.548;2022-07-03T09:11:53;1.13;;;1.02;;
19566;SDS011;9930;49.240;8.548;2022-07-03T09:14:19;1.20;;;1.00;;
19566;SDS011;9930;49.240;8.548;2022-07-03T09:16:54;0.80;;;0.80;;
19566;SDS011;9930;49.240;8.548;2022-07-03T09:19:39;1.35;;;0.90;;
19566;SDS011;9930;49.240;8.548;2022-07-03T09:22:24;1.13;;;0.95;;
19566;SDS011;9930;49.240;8.548;2022-07-03T09:24:53;1.52;;;1.00;;
19566;SDS011;9930;49.240;8.548;2022-07-03T09:27:32;1.20;;;1.10;;
19566;SDS011;9930;49.240;8.548;2022-07-03T09:30:03;0.80;;;0.80;;
19566;SDS011;9930;49.240;8.548;2022-07-03T09:35:36;0.85;;;0.85;;
19566;SDS011;9930;49.240;8.548;2022-07-03T09:40:27;1.00;;;0.90;;
19566;SDS011;9930;49.240;8.548;2022-07-03T09:43:15;1.10;;;1.10;;
19566;SDS011;9930;49.240;8.548;2022-07-03T09:45:48;0.90;;;0.90;;
19566;SDS011;9930;49.240;8.548;2022-07-03T09:51:07;1.05;;;0.93;;
19566;SDS011;9930;49.240;8.548;2022-07-03T09:53:56;1.00;;;1.00;;
19566;SDS011;9930;49.240;8.548;2022-07-03T09:56:27;0.88;;;0.75;;
19566;SDS011;9930;49.240;8.548;2022-07-03T10:04:19;0.88;;;0.88;;
19566;SDS011;9930;49.240;8.548;2022-07-03T10:06:54;0.70;;;0.70;;
19566;SDS011;9930;49.240;8.548;2022-07-03T10:11:59;1.05;;;0.90;;
19566;SDS011;9930;49.240;8.548;2022-07-03T10:14:30;0.80;;;0.80;;
19566;SDS011;9930;49.240;8.548;2022-07-03T10:17:00;0.90;;;0.90;;
19566;SDS011;9930;49.240;8.548;2022-07-03T10:19:29;0.88;;;0.85;;
19566;SDS011;9930;49.240;8.548;2022-07-03T10:22:00;0.80;;;0.80;;
19566;SDS011;9930;49.240;8.548;2022-07-03T10:24:32;0.80;;;0.80;;
19566;SDS011;9930;49.240;8.548;2022-07-03T10:27:06;1.00;;;1.00;;
19566;SDS011;9930;49.240;8.548;2022-07-03T10:29:32;0.60;;;0.60;;
19566;SDS011;9930;49.240;8.548;2022-07-03T10:32:01;0.90;;;0.90;;
19566;SDS011;9930;49.240;8.548;2022-07-03T10:34:31;1.35;;;1.00;;
19566;SDS011;9930;49.240;8.548;2022-07-03T10:36:59;1.10;;;0.93;;
19566;SDS011;9930;49.240;8.548;2022-07-03T10:39:41;1.00;;;0.82;;
19566;SDS011;9930;49.240;8.548;2022-07-03T10:42:47;0.70;;;0.70;;
19566;SDS011;9930;49.240;8.548;2022-07-03T10:46:17;1.42;;;0.90;;
19566;SDS011;9930;49.240;8.548;2022-07-03T11:13:04;0.73;;;0.60;;
19566;SDS011;9930;49.240;8.548;2022-07-03T11:15:51;0.57;;;0.57;;
19566;SDS011;9930;49.240;8.548;2022-07-03T11:25:51;0.70;;;0.70;;
19566;SDS011;9930;49.240;8.548;2022-07-03T11:41:25;0.73;;;0.73;;
19566;SDS011;9930;49.240;8.548;2022-07-03T11:44:06;0.70;;;0.70;;
19566;SDS011;9930;49.240;8.548;2022-07-03T11:46:36;0.80;;;0.80;;
19566;SDS011;9930;49.240;8.548;2022-07-03T11:49:06;1.23;;;1.10;;
19566;SDS011;9930;49.240;8.548;2022-07-03T11:51:58;0.80;;;0.80;;
19566;SDS011;9930;49.240;8.548;2022-07-03T11:54:33;0.95;;;0.90;;
19566;SDS011;9930;49.240;8.548;2022-07-03T11:57:24;0.90;;;0.82;;
19566;SDS011;9930;49.240;8.548;2022-07-03T11:59:56;0.63;;;0.63;;
19566;SDS011;9930;49.240;8.548;2022-07-03T12:02:30;0.70;;;0.70;;
19566;SDS011;9930;49.240;8.548;2022-07-03T12:04:55;0.98;;;0.80;;
19566;SDS011;9930;49.240;8.548;2022-07-03T12:07:21;1.33;;;0.93;;
19566;SDS011;9930;49.240;8.548;2022-07-03T12:09:52;0.80;;;0.80;;
19566;SDS011;9930;49.240;8.548;2022-07-03T12:12:27;0.82;;;0.68;;
19566;SDS011;9930;49.240;8.548;2022-07-03T12:15:02;1.35;;;0.77;;
19566;SDS011;9930;49.240;8.548;2022-07-03T12:17:30;0.80;;;0.80;;
19566;SDS011;9930;49.240;8.548;2022-07-03T12:19:59;0.95;;;0.85;;
19566;SDS011;9930;49.240;8.548;2022-07-03T12:22:33;2.08;;;0.80;;
19566;SDS011;9930;49.240;8.548;2022-07-03T12:25:10;1.85;;;0.75;;
19566;SDS011;9930;49.240;8.548;2022-07-03T12:27:38;0.93;;;0.80;;
19566;SDS011;9930;49.240;8.548;2022-07-03T12:30:11;1.00;;;1.00;;
19566;SDS011;9930;49.240;8.548;2022-07-03T12:32:44;0.80;;;0.80;;
19566;SDS011;9930;49.240;8.548;2022-07-03T12:35:11;0.70;;;0.70;;
19566;SDS011;9930;49.240;8.548;2022-07-03T12:37:38;0.75;;;0.70;;
19566;SDS011;9930;49.240;8.548;2022-07-03T12:40:06;0.70;;;0.70;;
19566;SDS011;9930;49.240;8.548;2022-07-03T12:42:42;1.25;;;0.90;;
19566;SDS011;9930;49.240;8.548;2022-07-03T12:45:13;0.70;;;0.70;;
19566;SDS011;9930;49.240;8.548;2022-07-03T12:47:41;0.70;;;0.70;;
19566;SDS011;9930;49.240;8.548;2022-07-03T12:50:08;0.77;;;0.77;;
19566;SDS011;9930;49.240;8.548;2022-07-03T12:52:41;1.40;;;0.80;;
19566;SDS011;9930;49.240;8.548;2022-07-03T12:55:25;0.80;;;0.80;;
19566;SDS011;9930;49.240;8.548;2022-07-03T12:58:16;0.60;;;0.60;;
19566;SDS011;9930;49.240;8.548;2022-07-03T13:01:22;0.95;;;0.73;;
19566;SDS011;9930;49.240;8.548;2022-07-03T13:04:08;0.77;;;0.77;;
19566;SDS011;9930;49.240;8.548;2022-07-03T13:06:39;1.08;;;0.90;;
19566;SDS011;9930;49.240;8.548;2022-07-03T13:09:07;1.50;;;0.80;;
19566;SDS011;9930;49.240;8.548;2022-07-03T13:11:37;0.98;;;0.77;;
19566;SDS011;9930;49.240;8.548;2022-07-03T13:14:06;0.80;;;0.80;;
19566;SDS011;9930;49.240;8.548;2022-07-03T13:16:50;0.88;;;0.88;;
19566;SDS011;9930;49.240;8.548;2022-07-03T13:19:26;1.80;;;0.88;;
19566;SDS011;9930;49.240;8.548;2022-07-03T13:21:57;0.82;;;0.60;;
19566;SDS011;9930;49.240;8.548;2022-07-03T13:24:24;2.05;;;0.80;;
19566;SDS011;9930;49.240;8.548;2022-07-03T13:26:51;0.70;;;0.70;;
19566;SDS011;9930;49.240;8.548;2022-07-03T13:29:21;0.80;;;0.80;;
19566;SDS011;9930;49.240;8.548;2022-07-03T13:31:49;0.77;;;0.70;;
19566;SDS011;9930;49.240;8.548;2022-07-03T13:34:19;0.73;;;0.73;;
19566;SDS011;9930;49.240;8.548;2022-07-03T13:36:53;0.73;;;0.73;;
19566;SDS011;9930;49.240;8.548;2022-07-03T13:39:20;1.35;;;0.90;;
19566;SDS011;9930;49.240;8.548;2022-07-03T13:41:49;0.95;;;0.90;;
19566;SDS011;9930;49.240;8.548;2022-07-03T13:44:19;0.70;;;0.70;;
19566;SDS011;9930;49.240;8.548;2022-07-03T13:46:58;1.42;;;0.60;;
19566;SDS011;9930;49.240;8.548;2022-07-03T13:49:26;1.00;;;1.00;;
19566;SDS011;9930;49.240;8.548;2022-07-03T13:51:53;0.60;;;0.60;;
19566;SDS011;9930;49.240;8.548;2022-07-03T13:54:23;1.17;;;0.68;;
19566;SDS011;9930;49.240;8.548;2022-07-03T13:56:50;0.80;;;0.80;;
19566;SDS011;9930;49.240;8.548;2022-07-03T13:59:24;0.70;;;0.70;;
19566;SDS011;9930;49.240;8.548;2022-07-03T14:01:57;1.20;;;1.00;;
19566;SDS011;9930;49.240;8.548;2022-07-03T14:04:28;0.80;;;0.80;;
19566;SDS011;9930;49.240;8.548;2022-07-03T14:06:57;1.10;;;0.75;;
19566;SDS011;9930;49.240;8.548;2022-07-03T14:09:25;0.80;;;0.80;;
19566;SDS011;9930;49.240;8.548;2022-07-03T14:11:51;1.15;;;0.85;;
19566;SDS011;9930;49.240;8.548;2022-07-03T14:14:17;0.95;;;0.93;;
19566;SDS011;9930;49.240;8.548;2022-07-03T14:16:43;0.88;;;0.80;;
19566;SDS011;9930;49.240;8.548;2022-07-03T14:19:09;0.75;;;0.70;;
19566;SDS011;9930;49.240;8.548;2022-07-03T14:21:34;0.80;;;0.80;;
19566;SDS011;9930;49.240;8.548;2022-07-03T14:24:00;0.70;;;0.70;;
19566;SDS011;9930;49.240;8.548;2022-07-03T14:26:26;0.70;;;0.70;;
19566;SDS011;9930;49.240;8.548;2022-07-03T14:29:11;0.65;;;0.65;;
19566;SDS011;9930;49.240;8.548;2022-07-03T14:31:57;0.70;;;0.70;;
19566;SDS011;9930;49.240;8.548;2022-07-03T14:34:42;0.70;;;0.70;;
19566;SDS011;9930;49.240;8.548;2022-07-03T14:37:12;0.80;;;0.80;;
19566;SDS011;9930;49.240;8.548;2022-07-03T14:39:46;1.63;;;1.00;;
19566;SDS011;9930;49.240;8.548;2022-07-03T14:42:16;1.00;;;1.00;;
19566;SDS011;9930;49.240;8.548;2022-07-03T14:44:45;1.38;;;1.00;;
19566;SDS011;9930;49.240;8.548;2022-07-03T14:47:11;1.23;;;1.10;;
19566;SDS011;9930;49.240;8.548;2022-07-03T14:49:39;0.70;;;0.70;;
19566;SDS011;9930;49.240;8.548;2022-07-03T14:52:08;0.90;;;0.90;;
19566;SDS011;9930;49.240;8.548;2022-07-03T14:54:34;1.17;;;0.90;;
19566;SDS011;9930;49.240;8.548;2022-07-03T14:57:14;1.10;;;1.00;;
19566;SDS011;9930;49.240;8.548;2022-07-03T15:00:07;1.20;;;1.10;;
19566;SDS011;9930;49.240;8.548;2022-07-03T15:05:33;1.85;;;0.90;;
19566;SDS011;9930;49.240;8.548;2022-07-03T15:11:06;1.10;;;1.00;;
19566;SDS011;9930;49.240;8.548;2022-07-03T15:13:57;0.85;;;0.77;;
19566;SDS011;9930;49.240;8.548;2022-07-03T15:16:28;1.30;;;0.70;;
19566;SDS011;9930;49.240;8.548;2022-07-03T15:18:58;0.85;;;0.85;;
19566;SDS011;9930;49.240;8.548;2022-07-03T15:21:26;1.02;;;1.00;;
19566;SDS011;9930;49.240;8.548;2022-07-03T15:24:01;0.68;;;0.68;;
19566;SDS011;9930;49.240;8.548;2022-07-03T15:26:31;1.27;;;0.90;;
19566;SDS011;9930;49.240;8.548;2022-07-03T15:28:58;0.65;;;0.65;;
19566;SDS011;9930;49.240;8.548;2022-07-03T15:31:33;0.90;;;0.80;;
19566;SDS011;9930;49.240;8.548;2022-07-03T15:34:04;0.90;;;0.90;;
19566;SDS011;9930;49.240;8.548;2022-07-03T15:36:35;0.80;;;0.80;;
19566;SDS011;9930;49.240;8.548;2022-07-03T15:39:12;0.70;;;0.70;;
19566;SDS011;9930;49.240;8.548;2022-07-03T15:42:05;0.82;;;0.80;;
19566;SDS011;9930;49.240;8.548;2022-07-03T15:51:03;1.70;;;1.10;;
19566;SDS011;9930;49.240;8.548;2022-07-03T15:53:19;0.98;;;0.90;;
19566;SDS011;9930;49.240;8.548;2022-07-03T15:55:57;0.90;;;0.90;;
19566;SDS011;9930;49.240;8.548;2022-07-03T15:58:32;1.10;;;1.00;;
19566;SDS011;9930;49.240;8.548;2022-07-03T16:01:04;1.05;;;0.75;;
19566;SDS011;9930;49.240;8.548;2022-07-03T16:06:48;1.25;;;1.00;;
19566;SDS011;9930;49.240;8.548;2022-07-03T16:09:15;2.38;;;0.93;;
19566;SDS011;9930;49.240;8.548;2022-07-03T16:11:44;0.85;;;0.85;;
19566;SDS011;9930;49.240;8.548;2022-07-03T16:14:11;1.08;;;0.80;;
19566;SDS011;9930;49.240;8.548;2022-07-03T16:16:40;0.82;;;0.82;;
19566;SDS011;9930;49.240;8.548;2022-07-03T16:19:11;1.85;;;0.73;;
19566;SDS011;9930;49.240;8.548;2022-07-03T16:21:38;1.05;;;0.95;;
19566;SDS011;9930;49.240;8.548;2022-07-03T16:24:06;1.02;;;0.95;;
19566;SDS011;9930;49.240;8.548;2022-07-03T16:26:36;0.90;;;0.88;;
19566;SDS011;9930;49.240;8.548;2022-07-03T16:29:04;1.17;;;1.10;;
19566;SDS011;9930;49.240;8.548;2022-07-03T16:31:37;0.60;;;0.60;;
19566;SDS011;9930;49.240;8.548;2022-07-03T16:37:01;1.10;;;0.80;;
19566;SDS011;9930;49.240;8.548;2022-07-03T16:39:38;0.70;;;0.70;;
19566;SDS011;9930;49.240;8.548;2022-07-03T16:42:06;1.02;;;0.93;;
19566;SDS011;9930;49.240;8.548;2022-07-03T16:44:37;0.70;;;0.70;;
19566;SDS011;9930;49.240;8.548;2022-07-03T16:47:06;0.70;;;0.70;;
19566;SDS011;9930;49.240;8.548;2022-07-03T16:49:36;1.13;;;0.90;;
19566;SDS011;9930;49.240;8.548;2022-07-03T16:52:06;0.63;;;0.63;;
19566;SDS011;9930;49.240;8.548;2022-07-03T16:54:37;0.90;;;0.90;;
19566;SDS011;9930;49.240;8.548;2022-07-03T16:57:06;1.00;;;1.00;;
19566;SDS011;9930;49.240;8.548;2022-07-03T16:59:35;1.25;;;1.05;;
19566;SDS011;9930;49.240;8.548;2022-07-03T17:02:04;1.55;;;0.93;;
19566;SDS011;9930;49.240;8.548;2022-07-03T17:04:42;1.83;;;1.20;;
19566;SDS011;9930;49.240;8.548;2022-07-03T17:07:12;1.10;;;0.98;;
19566;SDS011;9930;49.240;8.548;2022-07-03T17:09:43;1.13;;;1.13;;
19566;SDS011;9930;49.240;8.548;2022-07-03T17:12:11;1.40;;;1.30;;
19566;SDS011;9930;49.240;8.548;2022-07-03T17:14:37;1.30;;;1.20;;
19566;SDS011;9930;49.240;8.548;2022-07-03T17:17:13;1.17;;;1.08;;
19566;SDS011;9930;49.240;8.548;2022-07-03T17:19:59;0.80;;;0.80;;
19566;SDS011;9930;49.240;8.548;2022-07-03T17:22:34;0.95;;;0.82;;